createdAt,value
2023-03-29T00:02:30.374Z,6.50
2023-03-29T00:04:58.075Z,6.10
2023-03-29T00:07:26.136Z,6.47
2023-03-29T00:09:53.027Z,6.35
2023-03-29T00:12:19.631Z,6.63
2023-03-29T00:14:46.360Z,7.75
2023-03-29T00:17:13.090Z,6.72
2023-03-29T00:19:39.830Z,7.35
2023-03-29T00:22:06.426Z,6.75
2023-03-29T00:24:32.992Z,6.90
2023-03-29T00:26:59.573Z,6.35
2023-03-29T00:29:26.056Z,8.10
2023-03-29T00:31:54.361Z,6.00
2023-03-29T00:34:21.896Z,6.47
2023-03-29T00:36:52.982Z,6.55
2023-03-29T00:39:20.618Z,6.63
2023-03-29T00:41:48.413Z,6.63
2023-03-29T00:44:52.047Z,6.88
2023-03-29T00:47:22.553Z,6.53
2023-03-29T00:49:50.039Z,6.90
2023-03-29T00:52:18.232Z,6.13
2023-03-29T00:54:45.757Z,6.22
2023-03-29T00:57:13.652Z,6.90
2023-03-29T00:59:42.089Z,5.95
2023-03-29T01:02:09.435Z,6.28
2023-03-29T01:04:41.598Z,6.07
2023-03-29T01:07:26.232Z,5.95
2023-03-29T01:10:15.547Z,6.55
2023-03-29T01:12:49.020Z,6.13
2023-03-29T01:15:19.994Z,5.90
2023-03-29T01:20:23.370Z,5.60
2023-03-29T01:22:55.747Z,6.20
2023-03-29T01:25:57.761Z,5.80
2023-03-29T01:28:29.264Z,5.35
2023-03-29T01:31:08.443Z,5.88
2023-03-29T01:33:39.387Z,5.93
2023-03-29T01:38:49.665Z,5.78
2023-03-29T01:41:16.549Z,5.30
2023-03-29T01:43:51.794Z,5.82
2023-03-29T01:46:30.842Z,5.72
2023-03-29T01:49:23.598Z,6.25
2023-03-29T01:52:02.416Z,5.80
2023-03-29T01:54:32.331Z,5.38
2023-03-29T01:57:00.168Z,5.82
2023-03-29T01:59:29.279Z,5.43
2023-03-29T02:01:59.639Z,7.10
2023-03-29T02:04:30.939Z,5.72
2023-03-29T02:06:59.433Z,5.45
2023-03-29T02:09:27.067Z,6.13
2023-03-29T02:11:54.172Z,6.43
2023-03-29T02:14:21.234Z,5.93
2023-03-29T02:16:49.609Z,5.47
2023-03-29T02:19:17.666Z,5.15
2023-03-29T02:21:55.664Z,5.68
2023-03-29T02:24:23.678Z,5.43
2023-03-29T02:26:50.355Z,5.70
2023-03-29T02:29:17.107Z,5.75
2023-03-29T02:31:55.531Z,5.35
2023-03-29T02:34:38.880Z,6.30
2023-03-29T02:37:10.387Z,5.22
2023-03-29T02:39:37.163Z,5.57
2023-03-29T02:42:04.245Z,5.60
2023-03-29T02:44:33.234Z,5.53
2023-03-29T02:47:03.576Z,5.30
2023-03-29T02:49:30.402Z,5.78
2023-03-29T02:52:01.524Z,6.05
2023-03-29T02:54:29.988Z,5.55
2023-03-29T02:56:58.441Z,5.53
2023-03-29T02:59:25.776Z,5.78
2023-03-29T03:01:53.477Z,5.80
2023-03-29T03:04:23.050Z,5.55
2023-03-29T03:06:49.777Z,5.35
2023-03-29T03:09:16.781Z,5.45
2023-03-29T03:11:43.622Z,5.82
2023-03-29T03:14:10.484Z,5.40
2023-03-29T03:16:37.372Z,5.35
2023-03-29T03:19:05.408Z,5.35
2023-03-29T03:21:31.912Z,5.38
2023-03-29T03:23:58.547Z,5.72
2023-03-29T03:26:25.066Z,6.20
2023-03-29T03:28:51.660Z,5.03
2023-03-29T03:31:19.588Z,5.60
2023-03-29T03:33:46.210Z,5.18
2023-03-29T03:36:14.116Z,6.22
2023-03-29T03:38:41.275Z,5.70
2023-03-29T03:41:09.081Z,5.97
2023-03-29T03:43:36.174Z,5.88
2023-03-29T03:46:02.818Z,5.50
2023-03-29T03:48:29.281Z,5.85
2023-03-29T03:50:58.269Z,5.78
2023-03-29T03:53:26.232Z,5.80
2023-03-29T03:55:55.896Z,5.95
2023-03-29T03:58:23.262Z,5.90
2023-03-29T04:00:50.516Z,5.88
2023-03-29T04:03:17.675Z,6.07
2023-03-29T04:05:45.345Z,5.68
2023-03-29T04:08:13.279Z,5.97
2023-03-29T04:10:39.879Z,5.78
2023-03-29T04:13:07.423Z,5.88
2023-03-29T04:15:38.654Z,6.10
2023-03-29T04:18:07.272Z,6.10
2023-03-29T04:20:34.490Z,6.38
2023-03-29T04:23:01.053Z,6.43
2023-03-29T04:25:27.646Z,6.00
2023-03-29T04:27:54.256Z,6.95
2023-03-29T04:30:21.081Z,5.68
2023-03-29T04:32:47.870Z,5.70
2023-03-29T04:35:14.731Z,5.68
2023-03-29T04:37:42.356Z,6.30
2023-03-29T04:40:09.995Z,5.95
2023-03-29T04:42:37.506Z,7.45
2023-03-29T04:45:07.031Z,6.03
2023-03-29T04:47:36.319Z,6.00
2023-03-29T04:50:03.813Z,5.65
2023-03-29T04:52:33.096Z,6.13
2023-03-29T04:55:01.577Z,5.97
2023-03-29T04:57:29.175Z,5.30
2023-03-29T04:59:56.459Z,6.82
2023-03-29T05:02:23.118Z,6.05
2023-03-29T05:04:50.619Z,6.75
2023-03-29T05:07:18.203Z,6.38
2023-03-29T05:09:46.177Z,5.50
2023-03-29T05:12:12.925Z,6.05
2023-03-29T05:14:39.870Z,5.60
2023-03-29T05:17:06.566Z,6.20
2023-03-29T05:19:33.633Z,6.25
2023-03-29T05:22:00.801Z,6.28
2023-03-29T05:24:27.468Z,10.73
2023-03-29T05:26:54.077Z,6.80
2023-03-29T05:29:22.765Z,6.03
2023-03-29T05:31:49.526Z,6.25
2023-03-29T05:34:16.141Z,6.43
2023-03-29T05:36:43.040Z,6.28
2023-03-29T05:42:54.525Z,6.97
2023-03-29T05:45:24.702Z,7.00
2023-03-29T05:47:51.393Z,7.45
2023-03-29T05:50:18.100Z,6.80
2023-03-29T05:52:44.904Z,7.68
2023-03-29T05:55:11.516Z,7.57
2023-03-29T05:57:38.663Z,7.40
2023-03-29T06:00:17.041Z,7.30
2023-03-29T06:02:43.890Z,7.53
2023-03-29T06:05:10.526Z,7.60
2023-03-29T06:07:38.312Z,8.32
2023-03-29T06:10:06.073Z,8.13
2023-03-29T06:12:33.146Z,8.25
2023-03-29T06:15:04.789Z,7.72
2023-03-29T06:17:33.637Z,7.97
2023-03-29T06:20:01.120Z,7.40
2023-03-29T06:22:27.935Z,8.88
2023-03-29T06:24:54.753Z,7.50
2023-03-29T06:27:21.278Z,9.20
2023-03-29T06:29:48.275Z,7.95
2023-03-29T06:32:14.860Z,7.03
2023-03-29T06:34:41.584Z,8.00
2023-03-29T06:37:08.458Z,7.40
2023-03-29T06:39:35.048Z,7.75
2023-03-29T06:42:10.095Z,7.47
2023-03-29T06:44:43.617Z,7.57
2023-03-29T06:47:10.134Z,8.13
2023-03-29T06:49:36.627Z,6.50
2023-03-29T06:52:03.239Z,7.85
2023-03-29T06:54:29.789Z,7.40
2023-03-29T06:56:57.464Z,7.90
2023-03-29T06:59:23.991Z,7.35
2023-03-29T07:01:54.101Z,7.25
2023-03-29T07:04:21.138Z,6.50
2023-03-29T07:06:48.728Z,6.80
2023-03-29T07:09:18.359Z,6.65
2023-03-29T07:11:46.628Z,7.45
2023-03-29T07:14:13.122Z,6.93
2023-03-29T07:16:39.654Z,8.07
2023-03-29T07:19:06.332Z,6.93
2023-03-29T07:21:35.939Z,7.60
2023-03-29T07:26:32.250Z,6.38
2023-03-29T07:29:00.154Z,6.38
2023-03-29T07:31:28.478Z,6.38
2023-03-29T07:33:56.055Z,6.80
2023-03-29T07:36:22.703Z,6.05
2023-03-29T07:38:49.225Z,6.35
2023-03-29T07:41:16.051Z,8.50
2023-03-29T07:43:43.041Z,6.47
2023-03-29T07:46:10.184Z,5.90
2023-03-29T07:48:39.433Z,7.43
2023-03-29T07:51:06.649Z,6.72
2023-03-29T07:53:33.696Z,7.25
2023-03-29T07:56:00.310Z,6.50
2023-03-29T07:58:27.375Z,6.63
2023-03-29T08:00:53.937Z,6.70
2023-03-29T08:03:20.890Z,6.90
2023-03-29T08:05:47.505Z,6.55
2023-03-29T08:08:14.259Z,6.25
2023-03-29T08:10:42.444Z,6.55
2023-03-29T08:13:09.920Z,6.50
2023-03-29T08:15:39.077Z,7.18
2023-03-29T08:18:06.962Z,6.45
2023-03-29T08:20:33.762Z,6.75
2023-03-29T08:23:00.457Z,6.32
2023-03-29T08:25:27.082Z,6.85
2023-03-29T08:27:53.682Z,6.28
2023-03-29T08:30:20.608Z,7.35
2023-03-29T08:32:50.955Z,6.40
2023-03-29T08:35:19.201Z,6.65
2023-03-29T08:37:45.991Z,5.90
2023-03-29T08:40:20.236Z,5.75
2023-03-29T08:42:52.819Z,5.57
2023-03-29T08:45:29.524Z,6.30
2023-03-29T08:48:17.456Z,6.00
2023-03-29T08:50:48.041Z,6.10
2023-03-29T08:53:19.368Z,6.18
2023-03-29T08:55:47.960Z,6.35
2023-03-29T08:58:19.035Z,5.90
2023-03-29T09:00:54.336Z,6.70
2023-03-29T09:03:26.297Z,5.72
2023-03-29T09:06:09.339Z,6.13
2023-03-29T09:08:39.550Z,6.70
2023-03-29T09:11:24.085Z,6.18
2023-03-29T09:14:09.111Z,7.13
2023-03-29T09:16:57.628Z,6.40
2023-03-29T09:19:49.368Z,6.90
2023-03-29T09:22:38.055Z,6.40
2023-03-29T09:25:29.524Z,6.25
2023-03-29T09:28:35.739Z,6.43
2023-03-29T09:31:16.789Z,7.55
2023-03-29T09:36:40.601Z,6.68
2023-03-29T09:39:09.973Z,6.35
2023-03-29T09:41:41.576Z,6.45
2023-03-29T09:44:30.386Z,6.15
2023-03-29T09:47:01.390Z,6.53
2023-03-29T09:49:31.845Z,6.65
2023-03-29T09:52:02.287Z,6.38
2023-03-29T09:54:28.926Z,6.43
2023-03-29T09:56:55.617Z,6.30
2023-03-29T09:59:22.138Z,6.65
2023-03-29T10:01:48.646Z,5.80
2023-03-29T10:04:16.787Z,6.75
2023-03-29T10:06:49.265Z,6.32
2023-03-29T10:09:23.437Z,6.18
2023-03-29T10:11:53.142Z,6.25
2023-03-29T10:14:31.037Z,6.47
2023-03-29T10:16:57.786Z,5.78
2023-03-29T10:19:34.648Z,6.40
2023-03-29T10:22:07.979Z,6.38
2023-03-29T10:24:34.450Z,7.10
2023-03-29T10:27:04.680Z,6.25
2023-03-29T10:29:40.111Z,6.82
2023-03-29T10:32:18.517Z,6.32
2023-03-29T10:34:46.969Z,6.43
2023-03-29T10:37:16.561Z,6.03
2023-03-29T10:39:43.240Z,6.93
2023-03-29T10:42:14.044Z,6.13
2023-03-29T10:44:41.113Z,8.10
2023-03-29T10:47:20.115Z,6.00
2023-03-29T10:49:53.202Z,5.70
2023-03-29T10:52:22.096Z,6.70
2023-03-29T10:54:50.990Z,6.75
2023-03-29T10:57:56.280Z,7.05
2023-03-29T11:00:51.873Z,6.13
2023-03-29T11:03:47.037Z,6.13
2023-03-29T11:06:37.366Z,6.65
2023-03-29T11:09:36.322Z,6.57
2023-03-29T11:12:20.852Z,6.05
2023-03-29T11:15:05.304Z,6.50
2023-03-29T11:17:37.967Z,5.80
2023-03-29T11:20:21.692Z,6.30
2023-03-29T11:23:07.398Z,6.38
2023-03-29T11:25:39.804Z,5.97
2023-03-29T11:28:31.290Z,5.65
2023-03-29T11:31:27.443Z,6.75
2023-03-29T11:34:06.851Z,6.68
2023-03-29T11:36:59.374Z,6.78
2023-03-29T11:39:53.799Z,6.53
2023-03-29T11:42:36.014Z,7.18
2023-03-29T11:45:04.917Z,6.47
2023-03-29T11:47:39.301Z,6.53
2023-03-29T11:50:15.488Z,6.95
2023-03-29T11:52:56.714Z,6.93
2023-03-29T11:55:29.265Z,6.53
2023-03-29T11:58:02.745Z,6.82
2023-03-29T12:00:32.994Z,6.82
2023-03-29T12:03:02.388Z,7.07
2023-03-29T12:05:37.326Z,6.68
2023-03-29T12:08:10.832Z,7.32
2023-03-29T12:11:00.669Z,6.65
2023-03-29T12:13:35.293Z,7.37
2023-03-29T12:16:16.516Z,7.35
2023-03-29T12:18:46.309Z,6.88
2023-03-29T12:21:16.089Z,6.90
2023-03-29T12:23:43.911Z,7.32
2023-03-29T12:26:29.288Z,7.47
2023-03-29T12:29:26.849Z,6.75
2023-03-29T12:32:17.288Z,6.70
2023-03-29T12:34:52.914Z,6.38
2023-03-29T12:37:27.051Z,5.85
2023-03-29T12:39:53.816Z,5.88
2023-03-29T12:42:22.587Z,6.63
2023-03-29T12:44:58.840Z,6.32
2023-03-29T12:47:30.171Z,6.22
2023-03-29T12:49:58.417Z,6.00
2023-03-29T12:52:27.874Z,6.28
2023-03-29T12:54:57.338Z,5.88
2023-03-29T12:57:56.513Z,7.40
2023-03-29T13:00:27.812Z,6.80
2023-03-29T13:03:06.455Z,7.10
2023-03-29T13:05:36.919Z,6.75
2023-03-29T13:08:42.862Z,6.57
2023-03-29T13:11:25.678Z,6.57
2023-03-29T13:13:52.436Z,7.40
2023-03-29T13:16:20.464Z,7.18
2023-03-29T13:19:21.217Z,7.00
2023-03-29T13:22:24.213Z,7.07
2023-03-29T13:25:08.622Z,6.85
2023-03-29T13:27:55.377Z,6.38
2023-03-29T13:30:26.671Z,6.65
2023-03-29T13:33:11.614Z,7.82
2023-03-29T13:35:50.405Z,7.20
2023-03-29T13:38:21.505Z,7.10
2023-03-29T13:40:54.458Z,6.75
2023-03-29T13:43:33.394Z,7.35
2023-03-29T13:45:59.909Z,6.90
2023-03-29T13:48:28.400Z,6.20
2023-03-29T13:51:08.007Z,6.72
2023-03-29T13:53:37.346Z,6.22
2023-03-29T13:56:06.712Z,6.97
2023-03-29T13:58:38.401Z,6.85
2023-03-29T14:01:19.666Z,7.97
2023-03-29T14:03:48.716Z,7.68
2023-03-29T14:06:25.644Z,7.22
2023-03-29T14:08:53.251Z,7.22
2023-03-29T14:11:28.566Z,7.15
2023-03-29T14:13:58.031Z,7.22
2023-03-29T14:16:33.518Z,7.03
2023-03-29T14:19:03.591Z,7.55
2023-03-29T14:21:30.574Z,6.65
2023-03-29T14:24:02.278Z,7.03
2023-03-29T14:26:34.648Z,6.75
2023-03-29T14:29:02.627Z,7.03
2023-03-29T14:31:35.538Z,6.70
2023-03-29T14:34:04.715Z,6.53
2023-03-29T14:36:33.384Z,6.47
2023-03-29T14:39:10.822Z,6.22
2023-03-29T14:41:38.724Z,5.93
2023-03-29T14:44:06.945Z,6.05
2023-03-29T14:46:34.278Z,6.95
2023-03-29T14:49:02.209Z,7.03
2023-03-29T14:51:31.033Z,6.20
2023-03-29T14:53:59.189Z,6.25
2023-03-29T14:56:27.402Z,6.43
2023-03-29T14:58:56.633Z,6.53
2023-03-29T15:01:25.800Z,6.43
2023-03-29T15:04:01.952Z,6.68
2023-03-29T15:06:29.367Z,6.20
2023-03-29T15:09:05.453Z,5.65
2023-03-29T15:11:33.934Z,5.85
2023-03-29T15:14:06.338Z,6.30
2023-03-29T15:16:33.479Z,6.72
2023-03-29T15:19:01.560Z,6.20
2023-03-29T15:21:35.687Z,6.28
2023-03-29T15:24:03.879Z,6.43
2023-03-29T15:26:34.312Z,5.97
2023-03-29T15:29:17.552Z,5.88
2023-03-29T15:31:54.878Z,5.50
2023-03-29T15:34:26.600Z,6.00
2023-03-29T15:36:53.984Z,5.55
2023-03-29T15:39:20.741Z,5.50
2023-03-29T15:41:49.045Z,5.75
2023-03-29T15:44:19.495Z,6.05
2023-03-29T15:46:46.046Z,5.65
2023-03-29T15:49:13.861Z,6.07
2023-03-29T15:51:40.784Z,6.18
2023-03-29T15:54:07.914Z,5.65
2023-03-29T15:56:38.216Z,5.53
2023-03-29T15:59:05.377Z,5.18
2023-03-29T16:01:34.784Z,5.25
2023-03-29T16:04:07.524Z,5.90
2023-03-29T16:06:34.782Z,5.25
2023-03-29T16:09:01.379Z,6.00
2023-03-29T16:11:28.458Z,5.47
2023-03-29T16:13:56.373Z,5.47
2023-03-29T16:16:23.353Z,6.20
2023-03-29T16:18:49.950Z,6.15
2023-03-29T16:21:18.560Z,5.80
2023-03-29T16:23:46.537Z,5.80
2023-03-29T16:26:17.177Z,5.80
2023-03-29T16:28:44.065Z,6.13
2023-03-29T16:31:11.995Z,5.68
2023-03-29T16:33:39.440Z,5.82
2023-03-29T16:36:06.769Z,5.90
2023-03-29T16:38:34.180Z,6.07
2023-03-29T16:41:01.526Z,6.55
2023-03-29T16:43:30.545Z,5.10
2023-03-29T16:45:57.410Z,5.82
2023-03-29T16:48:24.689Z,6.15
2023-03-29T16:50:51.320Z,5.97
2023-03-29T16:53:19.730Z,5.30
2023-03-29T16:55:47.251Z,5.78
2023-03-29T16:58:15.505Z,5.10
2023-03-29T17:00:43.457Z,5.50
2023-03-29T17:03:11.771Z,6.78
2023-03-29T17:05:41.559Z,5.82
2023-03-29T17:08:10.018Z,6.47
2023-03-29T17:10:38.860Z,6.25
2023-03-29T17:13:05.460Z,6.00
2023-03-29T17:15:32.018Z,6.18
2023-03-29T17:17:58.582Z,7.10
2023-03-29T17:20:25.349Z,6.60
2023-03-29T17:22:53.995Z,7.82
2023-03-29T17:25:21.275Z,7.82
2023-03-29T17:27:48.087Z,6.25
2023-03-29T17:30:15.448Z,5.78
2023-03-29T17:32:43.041Z,4.95
2023-03-29T17:35:10.396Z,5.13
2023-03-29T17:37:37.403Z,5.43
2023-03-29T17:40:13.617Z,5.18
2023-03-29T17:42:41.278Z,5.50
2023-03-29T17:45:08.798Z,5.10
2023-03-29T17:47:35.459Z,5.55
2023-03-29T17:50:02.415Z,5.22
2023-03-29T17:52:29.180Z,5.57
2023-03-29T17:54:55.954Z,5.53
2023-03-29T17:57:22.777Z,5.63
2023-03-29T17:59:49.444Z,5.30
2023-03-29T18:02:21.935Z,5.50
2023-03-29T18:04:49.457Z,5.22
2023-03-29T18:07:17.404Z,5.60
2023-03-29T18:09:44.229Z,5.00
2023-03-29T18:12:11.006Z,5.70
2023-03-29T18:14:37.490Z,5.22
2023-03-29T18:17:04.256Z,5.30
2023-03-29T18:19:30.903Z,5.65
2023-03-29T18:21:57.517Z,6.00
2023-03-29T18:24:24.146Z,7.43
2023-03-29T18:26:50.863Z,7.07
2023-03-29T18:29:17.392Z,5.25
2023-03-29T18:31:45.974Z,5.43
2023-03-29T18:34:12.788Z,5.50
2023-03-29T18:36:39.570Z,5.30
2023-03-29T18:39:06.325Z,5.15
2023-03-29T18:41:34.266Z,5.80
2023-03-29T18:44:00.927Z,5.00
2023-03-29T18:46:30.490Z,10.07
2023-03-29T18:48:58.692Z,6.65
2023-03-29T18:51:28.579Z,5.53
2023-03-29T18:53:55.651Z,5.47
2023-03-29T18:56:22.272Z,5.13
2023-03-29T18:58:49.053Z,5.32
2023-03-29T19:01:15.748Z,5.93
2023-03-29T19:03:42.641Z,5.45
2023-03-29T19:06:09.528Z,5.50
2023-03-29T19:08:38.741Z,6.68
2023-03-29T19:11:07.738Z,5.03
2023-03-29T19:13:34.631Z,5.40
2023-03-29T19:16:01.800Z,5.07
2023-03-29T19:18:28.784Z,5.53
2023-03-29T19:20:55.389Z,5.38
2023-03-29T19:23:23.154Z,4.97
2023-03-29T19:26:01.056Z,5.38
2023-03-29T19:28:28.600Z,5.22
2023-03-29T19:30:56.191Z,6.03
2023-03-29T19:33:22.755Z,6.47
2023-03-29T19:35:52.791Z,5.45
2023-03-29T19:38:19.846Z,5.10
2023-03-29T19:40:49.828Z,4.78
2023-03-29T19:43:17.127Z,6.68
2023-03-29T19:45:44.674Z,4.90
2023-03-29T19:48:21.133Z,5.13
2023-03-29T19:50:48.811Z,5.32
2023-03-29T19:53:15.776Z,5.20
2023-03-29T19:55:43.772Z,4.68
2023-03-29T19:58:10.319Z,4.80
2023-03-29T20:00:39.125Z,5.78
2023-03-29T20:03:09.395Z,4.72
2023-03-29T20:08:03.455Z,5.03
2023-03-29T20:10:29.993Z,5.18
2023-03-29T20:12:57.033Z,4.57
2023-03-29T20:15:26.480Z,4.78
2023-03-29T20:17:54.814Z,4.55
2023-03-29T20:20:24.660Z,4.60
2023-03-29T20:22:54.041Z,4.80
2023-03-29T20:25:21.343Z,5.63
2023-03-29T20:27:49.461Z,5.57
2023-03-29T20:30:16.466Z,4.95
2023-03-29T20:32:43.462Z,5.30
2023-03-29T20:35:11.670Z,5.60
2023-03-29T20:37:38.192Z,4.82
2023-03-29T20:40:06.038Z,5.20
2023-03-29T20:42:34.431Z,4.70
2023-03-29T20:45:01.409Z,5.20
2023-03-29T20:47:29.359Z,4.90
2023-03-29T20:49:56.758Z,4.72
2023-03-29T20:52:24.116Z,5.00
2023-03-29T20:54:50.792Z,4.80
2023-03-29T20:57:20.884Z,4.97
2023-03-29T20:59:49.275Z,4.80
2023-03-29T21:02:21.650Z,5.28
2023-03-29T21:04:52.550Z,6.78
2023-03-29T21:09:48.384Z,5.38
2023-03-29T21:12:15.063Z,5.07
2023-03-29T21:14:41.622Z,5.07
2023-03-29T21:17:09.531Z,5.20
2023-03-29T21:19:37.872Z,5.43
2023-03-29T21:22:05.064Z,4.90
2023-03-29T21:24:33.074Z,5.28
2023-03-29T21:26:59.973Z,5.60
2023-03-29T21:29:26.564Z,5.30
2023-03-29T21:31:53.177Z,5.45
2023-03-29T21:34:19.795Z,5.28
2023-03-29T21:36:46.365Z,5.70
2023-03-29T21:39:15.427Z,5.03
2023-03-29T21:41:41.939Z,5.05
2023-03-29T21:44:08.492Z,5.30
2023-03-29T21:46:35.454Z,5.40
2023-03-29T21:49:02.128Z,5.93
2023-03-29T21:51:28.792Z,5.20
2023-03-29T21:53:55.312Z,5.50
2023-03-29T21:56:22.504Z,5.95
2023-03-29T21:58:49.190Z,5.18
2023-03-29T22:01:15.754Z,5.40
2023-03-29T22:03:42.297Z,5.22
2023-03-29T22:06:09.694Z,5.30
2023-03-29T22:08:40.541Z,5.10
2023-03-29T22:13:35.123Z,5.15
2023-03-29T22:16:03.877Z,5.32
2023-03-29T22:18:46.802Z,4.90
2023-03-29T22:21:16.151Z,5.43
2023-03-29T22:23:43.679Z,5.35
2023-03-29T22:26:12.218Z,5.40
2023-03-29T22:28:39.943Z,5.80
2023-03-29T22:31:08.799Z,5.15
2023-03-29T22:33:36.573Z,5.45
2023-03-29T22:36:12.382Z,5.57
2023-03-29T22:38:38.989Z,5.50
2023-03-29T22:41:06.236Z,5.60
2023-03-29T22:43:32.881Z,5.30
2023-03-29T22:45:59.429Z,5.80
2023-03-29T22:48:26.033Z,5.65
2023-03-29T22:50:54.671Z,5.47
2023-03-29T22:53:21.558Z,5.88
2023-03-29T22:55:49.228Z,6.55
2023-03-29T22:58:15.975Z,6.13
2023-03-29T23:00:43.609Z,5.60
2023-03-29T23:03:10.511Z,6.32
2023-03-29T23:05:37.048Z,6.07
2023-03-29T23:08:03.645Z,6.13
2023-03-29T23:10:30.636Z,5.72
2023-03-29T23:13:10.347Z,5.75
2023-03-29T23:15:38.486Z,5.93
2023-03-29T23:18:05.680Z,5.78
2023-03-29T23:20:32.699Z,6.47
2023-03-29T23:22:59.746Z,5.80
2023-03-29T23:25:26.581Z,5.90
2023-03-29T23:27:53.989Z,6.00
2023-03-29T23:30:21.673Z,5.85
2023-03-29T23:32:49.564Z,6.70
2023-03-29T23:35:16.497Z,6.18
2023-03-29T23:37:43.246Z,6.32
2023-03-29T23:40:11.734Z,6.35
2023-03-29T23:42:39.300Z,6.57
2023-03-29T23:45:07.616Z,6.32
2023-03-29T23:47:35.591Z,5.75
2023-03-29T23:50:02.379Z,6.65
2023-03-29T23:52:32.933Z,6.18
2023-03-29T23:55:00.623Z,6.28
2023-03-29T23:57:28.230Z,6.40
2023-03-29T23:59:56.171Z,5.80
